Time;durP1;ratioP1;P1;durP2;ratioP2;P2;SDS_P1;SDS_P2;PMS_P1;PMS_P2;Temp;Humidity;BMP_temperature;BMP_pressure;BME280_temperature;BME280_humidity;BME280_pressure;Samples;Min_cycle;Max_cycle;Signal;HPM_P1;HPM_P2
2023/04/26 00:01:09;;;;;;;4.70;1.40;;;;;;;2.49;100.00;100456.88;4997508;28;20189;-84
2023/04/26 00:03:35;;;;;;;0.73;0.57;;;;;;;2.50;100.00;100463.06;5001497;28;20216;-84
2023/04/26 00:06:04;;;;;;;1.73;1.30;;;;;;;2.48;100.00;100459.81;5003468;28;20219;-83
2023/04/26 00:08:29;;;;;;;6.93;1.13;;;;;;;2.44;100.00;100454.09;5000306;28;20177;-85
2023/04/26 00:10:55;;;;;;;0.67;0.67;;;;;;;2.42;100.00;100458.94;4997982;28;20193;-83
2023/04/26 00:13:20;;;;;;;3.00;2.13;;;;;;;2.39;100.00;100459.47;4997502;28;20188;-84
2023/04/26 00:15:46;;;;;;;5.33;0.80;;;;;;;2.36;100.00;100454.59;4998427;28;20297;-83
2023/04/26 00:18:12;;;;;;;3.10;2.10;;;;;;;2.35;100.00;100459.19;4999096;28;20185;-85
2023/04/26 00:20:38;;;;;;;1.57;1.47;;;;;;;2.33;100.00;100457.81;4998896;28;20204;-83
2023/04/26 00:23:03;;;;;;;0.97;0.97;;;;;;;2.34;100.00;100457.56;4999177;28;20185;-83
2023/04/26 00:25:28;;;;;;;3.50;1.30;;;;;;;2.35;100.00;100464.56;5001660;28;20253;-83
2023/04/26 00:27:54;;;;;;;1.53;0.93;;;;;;;2.35;100.00;100458.38;5000865;28;20189;-83
2023/04/26 00:30:21;;;;;;;0.10;0.10;;;;;;;2.34;100.00;100459.44;5002018;28;20226;-83
2023/04/26 00:32:46;;;;;;;0.93;0.73;;;;;;;2.29;100.00;100457.50;5001371;28;20181;-83
2023/04/26 00:35:12;;;;;;;1.00;0.97;;;;;;;2.28;100.00;100455.06;5003209;28;20303;-84
2023/04/26 00:37:40;;;;;;;0.70;0.43;;;;;;;2.22;100.00;100456.91;5003857;28;20241;-85
2023/04/26 00:40:06;;;;;;;0.57;0.57;;;;;;;2.18;100.00;100455.78;4999070;28;20268;-84
2023/04/26 00:42:31;;;;;;;0.20;0.20;;;;;;;2.23;100.00;100457.72;4999244;28;20173;-84
2023/04/26 00:44:57;;;;;;;1.53;1.40;;;;;;;2.16;100.00;100457.91;4997702;28;20212;-83
2023/04/26 00:47:27;;;;;;;2.37;1.03;;;;;;;2.18;100.00;100463.88;4998889;28;20201;-84
2023/04/26 00:49:52;;;;;;;1.80;0.53;;;;;;;2.14;100.00;100454.66;4998813;28;20185;-84
2023/04/26 00:52:17;;;;;;;1.40;0.77;;;;;;;2.14;100.00;100459.22;4999024;28;20191;-84
2023/04/26 00:54:43;;;;;;;7.20;1.87;;;;;;;2.17;100.00;100464.94;4997196;28;20169;-83
2023/04/26 00:57:09;;;;;;;9.37;2.07;;;;;;;2.21;100.00;100460.66;4997869;28;20215;-84
2023/04/26 00:59:35;;;;;;;1.60;1.13;;;;;;;2.23;100.00;100458.53;4996021;28;20173;-82
2023/04/26 01:02:02;;;;;;;15.67;2.33;;;;;;;2.22;100.00;100470.38;4994212;28;20526;-83
2023/04/26 01:04:29;;;;;;;1.23;1.23;;;;;;;2.23;100.00;100466.59;4995743;28;20205;-83
2023/04/26 01:06:54;;;;;;;1.33;1.23;;;;;;;2.25;100.00;100464.47;4995614;28;20208;-83
2023/04/26 01:09:21;;;;;;;3.17;1.50;;;;;;;2.25;100.00;100458.25;4993688;28;20763;-83
2023/04/26 01:11:46;;;;;;;0.97;0.87;;;;;;;2.22;100.00;100464.97;4993722;28;20177;-83
2023/04/26 01:14:13;;;;;;;8.13;2.20;;;;;;;2.19;100.00;100462.81;4993213;28;20185;-83
2023/04/26 01:16:45;;;;;;;1.17;1.07;;;;;;;2.22;100.00;100458.78;4994466;28;20197;-83
2023/04/26 01:19:11;;;;;;;4.30;2.33;;;;;;;2.18;100.00;100473.84;4994462;28;20706;-84
2023/04/26 01:21:37;;;;;;;0.60;0.47;;;;;;;2.11;100.00;100468.66;4992997;28;20181;-84
2023/04/26 01:24:03;;;;;;;0.40;0.40;;;;;;;2.06;100.00;100476.69;4993373;28;20197;-83
2023/04/26 01:26:29;;;;;;;1.13;1.00;;;;;;;1.99;100.00;100468.78;4993100;28;20201;-83
2023/04/26 01:28:55;;;;;;;8.13;0.90;;;;;;;1.96;100.00;100481.97;4993244;28;20180;-83
2023/04/26 01:31:20;;;;;;;10.30;1.30;;;;;;;1.94;100.00;100476.84;5000912;28;20177;-85
2023/04/26 01:33:45;;;;;;;10.03;1.53;;;;;;;1.98;100.00;100485.22;4999377;28;20212;-85
2023/04/26 01:36:11;;;;;;;9.90;1.57;;;;;;;1.97;100.00;100488.97;4999074;28;20641;-85
2023/04/26 01:38:36;;;;;;;1.77;1.67;;;;;;;1.98;100.00;100483.34;4999746;28;20243;-85
2023/04/26 01:41:02;;;;;;;0.83;0.83;;;;;;;1.94;100.00;100478.72;4998597;28;20563;-84
2023/04/26 01:43:27;;;;;;;6.17;1.77;;;;;;;1.91;100.00;100482.75;4999159;28;20213;-85
2023/04/26 01:45:52;;;;;;;11.53;1.93;;;;;;;1.89;100.00;100482.19;4996250;28;20207;-83
2023/04/26 01:48:18;;;;;;;0.93;0.93;;;;;;;1.94;100.00;100481.41;4994374;28;20188;-83
2023/04/26 01:50:43;;;;;;;4.80;1.43;;;;;;;1.90;100.00;100480.28;4994655;28;20622;-82
2023/04/26 01:53:08;;;;;;;4.17;1.93;;;;;;;1.87;100.00;100476.19;4992859;28;20188;-83
2023/04/26 01:55:33;;;;;;;8.70;2.40;;;;;;;1.86;100.00;100482.66;4992346;28;20185;-83
2023/04/26 01:57:59;;;;;;;7.27;2.07;;;;;;;1.84;100.00;100476.72;4993122;28;20331;-82
2023/04/26 02:00:25;;;;;;;1.13;1.07;;;;;;;1.85;100.00;100481.03;5001387;28;20184;-86
2023/04/26 02:02:53;;;;;;;5.57;1.03;;;;;;;1.88;100.00;100477.00;5013913;28;20613;-86
2023/04/26 02:05:19;;;;;;;0.70;0.63;;;;;;;1.88;100.00;100477.84;5012986;28;20193;-83
2023/04/26 02:07:44;;;;;;;3.40;1.07;;;;;;;1.83;100.00;100488.56;4998606;28;20749;-83
2023/04/26 02:10:09;;;;;;;5.90;1.93;;;;;;;1.83;100.00;100482.34;4992788;28;20177;-82
2023/04/26 02:12:35;;;;;;;1.17;1.17;;;;;;;1.81;100.00;100482.63;4993841;28;20181;-83
2023/04/26 02:15:00;;;;;;;4.43;1.13;;;;;;;1.79;100.00;100479.38;4993402;28;20184;-83
2023/04/26 02:17:26;;;;;;;14.20;2.90;;;;;;;1.81;100.00;100477.22;4992456;28;20201;-83
2023/04/26 02:19:51;;;;;;;2.30;2.10;;;;;;;1.81;100.00;100477.22;4992547;28;20729;-83
2023/04/26 02:22:17;;;;;;;1.33;1.23;;;;;;;1.82;100.00;100478.03;4993752;28;20639;-83
2023/04/26 02:24:42;;;;;;;4.17;2.10;;;;;;;1.77;100.00;100471.53;4993792;28;20201;-83
2023/04/26 02:27:07;;;;;;;1.97;1.30;;;;;;;1.77;100.00;100476.13;4993392;28;20252;-83
2023/04/26 02:29:32;;;;;;;1.17;0.90;;;;;;;1.77;100.00;100474.22;4993706;28;20733;-83
2023/04/26 02:31:58;;;;;;;1.20;1.07;;;;;;;1.75;100.00;100467.47;4992120;28;20185;-83
2023/04/26 02:34:23;;;;;;;1.60;1.43;;;;;;;1.71;100.00;100483.31;4992047;28;20239;-83
2023/04/26 02:36:48;;;;;;;1.60;1.50;;;;;;;1.68;100.00;100478.44;4994620;28;20683;-83
2023/04/26 02:39:14;;;;;;;1.73;1.63;;;;;;;1.66;100.00;100482.44;4997220;28;20640;-82
2023/04/26 02:41:39;;;;;;;0.90;0.73;;;;;;;1.65;100.00;100475.44;4997056;28;20241;-83
2023/04/26 02:44:05;;;;;;;14.10;1.83;;;;;;;1.65;100.00;100484.31;4997000;28;20695;-83
2023/04/26 02:46:30;;;;;;;1.20;1.10;;;;;;;1.68;100.00;100483.00;4996610;28;20708;-84
2023/04/26 02:48:55;;;;;;;1.03;0.83;;;;;;;1.63;100.00;100489.16;4995635;28;20185;-83
2023/04/26 02:51:20;;;;;;;5.83;1.80;;;;;;;1.58;100.00;100489.06;4996288;28;20608;-83
2023/04/26 02:53:46;;;;;;;1.87;1.17;;;;;;;1.56;100.00;100485.00;4995575;28;20185;-83
2023/04/26 02:56:11;;;;;;;13.57;2.00;;;;;;;1.55;100.00;100480.69;4996489;28;20204;-83
2023/04/26 02:58:36;;;;;;;6.13;2.67;;;;;;;1.53;100.00;100486.31;4995310;28;20193;-84
2023/04/26 03:01:03;;;;;;;0.77;0.77;;;;;;;1.53;100.00;100486.31;4995205;28;20609;-83
2023/04/26 03:03:29;;;;;;;15.00;2.03;;;;;;;1.52;100.00;100475.81;4996423;28;20292;-83
2023/04/26 03:05:55;;;;;;;17.00;1.77;;;;;;;1.54;100.00;100479.88;4995194;28;20348;-83
2023/04/26 03:08:20;;;;;;;1.47;1.37;;;;;;;1.51;100.00;100477.69;4995402;28;20181;-83
2023/04/26 03:10:45;;;;;;;1.43;1.33;;;;;;;1.46;100.00;100483.84;4996885;28;20218;-83
2023/04/26 03:13:11;;;;;;;2.77;1.10;;;;;;;1.45;100.00;100482.22;4995271;28;20212;-83
2023/04/26 03:15:36;;;;;;;2.13;2.03;;;;;;;1.43;100.00;100478.91;4994939;28;20219;-83
2023/04/26 03:18:01;;;;;;;0.77;0.77;;;;;;;1.43;100.00;100480.81;4994906;28;20280;-84
2023/04/26 03:20:26;;;;;;;0.80;0.80;;;;;;;1.38;100.00;100476.19;4995311;28;20185;-84
2023/04/26 03:22:52;;;;;;;0.63;0.63;;;;;;;1.35;100.00;100478.56;4995459;28;20293;-84
2023/04/26 03:25:17;;;;;;;0.30;0.30;;;;;;;1.37;100.00;100476.44;4995226;28;20207;-83
2023/04/26 03:27:43;;;;;;;1.30;1.20;;;;;;;1.35;100.00;100479.38;4997858;28;20213;-83
2023/04/26 03:30:08;;;;;;;2.17;1.50;;;;;;;1.34;100.00;100482.31;4996625;28;20197;-84
2023/04/26 03:32:34;;;;;;;4.60;1.80;;;;;;;1.36;100.00;100477.50;4997060;28;20610;-84
2023/04/26 03:34:59;;;;;;;9.50;0.57;;;;;;;1.35;100.00;100473.19;4997543;28;20181;-83
2023/04/26 03:37:24;;;;;;;2.20;1.27;;;;;;;1.35;100.00;100473.19;4996051;28;20207;-83
2023/04/26 03:39:52;;;;;;;6.50;1.80;;;;;;;1.34;100.00;100479.63;4995333;28;20181;-83
2023/04/26 03:42:17;;;;;;;1.17;1.10;;;;;;;1.29;100.00;100480.34;4996722;28;20189;-82
2023/04/26 03:44:42;;;;;;;0.93;0.90;;;;;;;1.26;100.00;100480.03;4994791;28;20474;-83
2023/04/26 03:47:08;;;;;;;1.70;1.60;;;;;;;1.24;100.00;100488.38;4995636;28;20220;-82
2023/04/26 03:49:33;;;;;;;3.20;1.40;;;;;;;1.22;100.00;100487.81;4995883;28;20212;-83
2023/04/26 03:51:58;;;;;;;5.60;1.70;;;;;;;1.22;100.00;100478.91;4996472;28;20188;-83
2023/04/26 03:54:24;;;;;;;8.80;1.57;;;;;;;1.25;100.00;100494.56;4994631;28;20189;-83
2023/04/26 03:56:49;;;;;;;1.53;1.43;;;;;;;1.27;100.00;100495.94;4994721;28;20209;-83
2023/04/26 03:59:14;;;;;;;5.93;3.23;;;;;;;1.29;100.00;100493.81;4995138;28;20193;-83
2023/04/26 04:01:40;;;;;;;7.77;2.17;;;;;;;1.26;100.00;100486.25;4996029;28;20529;-83
2023/04/26 04:04:05;;;;;;;1.80;1.40;;;;;;;1.27;100.00;100484.38;4995826;28;20201;-84
2023/04/26 04:06:31;;;;;;;2.20;2.10;;;;;;;1.30;100.00;100489.25;4995042;28;20228;-83
2023/04/26 04:08:56;;;;;;;1.43;1.33;;;;;;;1.30;100.00;100483.84;4996132;28;20173;-83
2023/04/26 04:11:22;;;;;;;4.97;2.07;;;;;;;1.34;100.00;100490.41;4995619;28;20479;-85
2023/04/26 04:13:47;;;;;;;3.23;1.37;;;;;;;1.38;100.00;100491.50;4996567;28;20315;-84
2023/04/26 04:16:13;;;;;;;3.43;2.23;;;;;;;1.42;100.00;100492.63;4994990;28;20208;-84
2023/04/26 04:18:38;;;;;;;2.13;1.50;;;;;;;1.40;100.00;100494.75;4996182;28;20173;-84
2023/04/26 04:21:03;;;;;;;2.47;1.60;;;;;;;1.43;100.00;100499.66;4994514;28;20185;-84
2023/04/26 04:23:28;;;;;;;4.50;2.77;;;;;;;1.42;100.00;100496.13;4994323;28;20197;-83
2023/04/26 04:25:54;;;;;;;6.70;0.97;;;;;;;1.46;100.00;100499.97;4995123;28;20731;-83
2023/04/26 04:28:21;;;;;;;1.37;1.27;;;;;;;1.45;100.00;100494.84;4994371;28;20189;-83
2023/04/26 04:30:46;;;;;;;6.87;2.00;;;;;;;1.43;100.00;100499.66;4995574;28;20182;-84
2023/04/26 04:33:12;;;;;;;1.50;1.40;;;;;;;1.42;100.00;100500.72;4994011;28;20212;-83
2023/04/26 04:35:40;;;;;;;7.40;2.00;;;;;;;1.44;100.00;100507.47;4995758;28;20591;-83
2023/04/26 04:38:05;;;;;;;3.97;3.00;;;;;;;1.45;100.00;100502.94;4995455;28;20269;-83
2023/04/26 04:40:31;;;;;;;6.90;1.80;;;;;;;1.51;100.00;100506.50;4996206;28;20212;-83
2023/04/26 04:42:56;;;;;;;1.90;1.70;;;;;;;1.56;100.00;100511.94;4995508;28;20216;-83
2023/04/26 04:45:22;;;;;;;7.03;2.80;;;;;;;1.62;100.00;100511.75;4995403;28;20240;-83
2023/04/26 04:47:47;;;;;;;3.83;1.77;;;;;;;1.72;100.00;100514.56;4993844;28;20185;-83
2023/04/26 04:50:13;;;;;;;5.17;1.77;;;;;;;1.77;100.00;100506.56;4994100;28;20236;-84
2023/04/26 04:52:38;;;;;;;5.70;2.20;;;;;;;1.82;100.00;100513.06;4995723;28;20227;-83
2023/04/26 04:55:04;;;;;;;3.90;2.53;;;;;;;1.87;100.00;100513.91;4993957;28;20652;-84
2023/04/26 04:57:32;;;;;;;1.20;1.20;;;;;;;1.92;100.00;100522.06;4995669;28;20284;-84
2023/04/26 04:59:58;;;;;;;19.37;3.37;;;;;;;1.97;100.00;100515.91;4995865;28;20180;-83
2023/04/26 05:02:24;;;;;;;10.50;1.50;;;;;;;2.00;100.00;100513.53;4994868;28;20634;-82
2023/04/26 05:04:49;;;;;;;8.17;2.93;;;;;;;2.05;100.00;100507.41;4994004;28;20201;-83
2023/04/26 05:07:15;;;;;;;2.70;2.03;;;;;;;2.10;100.00;100518.22;4994489;28;20215;-84
2023/04/26 05:09:41;;;;;;;3.20;1.90;;;;;;;2.12;100.00;100517.97;4993008;28;20529;-83
2023/04/26 05:12:06;;;;;;;8.70;2.40;;;;;;;2.12;100.00;100523.34;4992710;28;20201;-84
2023/04/26 05:14:32;;;;;;;7.30;1.73;;;;;;;2.10;100.00;100518.22;4992959;28;20247;-83
2023/04/26 05:16:57;;;;;;;2.57;2.23;;;;;;;2.06;100.00;100522.50;4992418;28;20252;-83
2023/04/26 05:19:22;;;;;;;4.33;2.97;;;;;;;2.03;100.00;100515.75;4993109;28;20678;-83
2023/04/26 05:21:48;;;;;;;5.47;0.83;;;;;;;2.00;100.00;100516.22;4994304;28;20526;-83
2023/04/26 05:24:13;;;;;;;1.70;1.50;;;;;;;1.98;100.00;100531.81;4993708;28;20205;-84
2023/04/26 05:26:39;;;;;;;9.80;1.67;;;;;;;1.95;100.00;100526.94;4992990;28;20216;-83
2023/04/26 05:29:04;;;;;;;15.20;3.17;;;;;;;1.94;100.00;100530.72;4993100;28;20275;-83
2023/04/26 05:31:30;;;;;;;19.23;4.43;;;;;;;1.98;100.00;100531.81;4994607;28;20181;-83
2023/04/26 05:33:55;;;;;;;12.80;7.13;;;;;;;2.06;100.00;100527.88;4993615;28;20184;-83
2023/04/26 05:36:20;;;;;;;2.00;1.17;;;;;;;2.14;100.00;100532.81;4992279;28;20209;-83
2023/04/26 05:38:47;;;;;;;15.83;1.90;;;;;;;2.19;100.00;100537.47;4992733;28;20183;-84
2023/04/26 05:41:12;;;;;;;3.50;2.47;;;;;;;2.25;100.00;100544.50;4992790;28;20195;-83
2023/04/26 05:43:37;;;;;;;5.67;2.20;;;;;;;2.34;100.00;100549.22;4992931;28;20208;-83
2023/04/26 05:46:03;;;;;;;3.53;2.67;;;;;;;2.37;100.00;100551.38;4992902;28;20209;-83
2023/04/26 05:48:28;;;;;;;1.90;1.70;;;;;;;2.44;100.00;100561.16;4995434;28;20192;-84
2023/04/26 05:50:54;;;;;;;10.50;2.17;;;;;;;2.49;100.00;100553.94;4993666;28;20185;-83
2023/04/26 05:53:20;;;;;;;4.80;1.97;;;;;;;2.55;100.00;100554.78;4993904;28;20173;-83
2023/04/26 05:55:45;;;;;;;12.40;2.07;;;;;;;2.61;100.00;100559.19;4993217;28;20236;-84
2023/04/26 05:58:10;;;;;;;2.47;2.27;;;;;;;2.67;100.00;100558.94;4994419;28;20236;-84
2023/04/26 06:00:37;;;;;;;0.93;0.93;;;;;;;2.76;100.00;100558.50;4992683;28;20181;-83
2023/04/26 06:03:03;;;;;;;6.70;2.90;;;;;;;2.82;100.00;100569.06;4992267;28;20195;-85
2023/04/26 06:05:28;;;;;;;2.80;2.20;;;;;;;2.87;100.00;100560.19;4957178;28;1039626;-83
2023/04/26 06:07:53;;;;;;;0.73;0.63;;;;;;;3.02;100.00;100571.09;4994478;28;20232;-83
2023/04/26 06:10:19;;;;;;;1.47;1.37;;;;;;;3.16;100.00;100569.59;4992673;28;20640;-84
2023/04/26 06:12:44;;;;;;;1.07;0.67;;;;;;;3.27;100.00;100574.00;4996852;28;20208;-83
2023/04/26 06:15:10;;;;;;;7.33;1.97;;;;;;;3.31;100.00;100562.66;4995768;28;20173;-84
2023/04/26 06:17:36;;;;;;;4.70;2.33;;;;;;;3.36;100.00;100565.41;4997182;28;20232;-83
2023/04/26 06:20:02;;;;;;;9.77;1.90;;;;;;;3.47;100.00;100564.38;4997748;28;20255;-86
2023/04/26 06:22:27;;;;;;;10.37;2.90;;;;;;;3.54;100.00;100567.69;4998765;28;20597;-83
2023/04/26 06:24:52;;;;;;;4.97;1.80;;;;;;;3.55;100.00;100566.59;4996024;28;20197;-84
2023/04/26 06:27:18;;;;;;;12.47;2.13;;;;;;;3.64;100.00;100564.22;4996286;28;20232;-84
2023/04/26 06:29:44;;;;;;;6.30;3.57;;;;;;;3.64;100.00;100573.16;4996990;28;20651;-84
2023/04/26 06:32:09;;;;;;;2.03;1.83;;;;;;;3.66;100.00;100567.47;4998775;28;20181;-83
2023/04/26 06:34:36;;;;;;;1.67;1.57;;;;;;;3.73;100.00;100574.25;4996319;28;20270;-83
2023/04/26 06:37:01;;;;;;;7.27;1.63;;;;;;;3.72;100.00;100561.00;4999377;28;20197;-83
2023/04/26 06:39:26;;;;;;;2.17;1.77;;;;;;;3.76;100.00;100579.16;4997498;28;20184;-83
2023/04/26 06:41:52;;;;;;;9.03;2.00;;;;;;;3.86;100.00;100578.38;4999326;28;20253;-82
2023/04/26 06:44:17;;;;;;;7.40;2.50;;;;;;;4.03;100.00;100576.28;4998278;28;20913;-83
2023/04/26 06:46:42;;;;;;;1.30;1.20;;;;;;;4.13;99.63;100584.44;4998258;28;20232;-83
2023/04/26 06:49:09;;;;;;;2.17;1.83;;;;;;;4.20;98.66;100583.41;4998357;28;20191;-83
2023/04/26 06:51:34;;;;;;;0.50;0.50;;;;;;;4.25;97.57;100569.88;4997754;28;20177;-85
2023/04/26 06:54:00;;;;;;;4.57;1.50;;;;;;;4.32;96.42;100571.25;4996461;28;20284;-83
2023/04/26 06:56:25;;;;;;;1.80;1.70;;;;;;;4.42;96.32;100573.16;4997037;28;20204;-83
2023/04/26 06:59:02;;;;;;;4.43;0.93;;;;;;;4.54;95.58;100583.75;4995465;28;20213;-83
2023/04/26 07:01:32;;;;;;;2.17;1.93;;;;;;;4.70;95.10;100580.78;4996425;28;20215;-83
2023/04/26 07:03:57;;;;;;;5.53;1.40;;;;;;;4.73;94.31;100584.84;4997840;28;20209;-85
2023/04/26 07:06:23;;;;;;;1.97;1.23;;;;;;;4.87;93.91;100582.41;5000004;28;20216;-83
2023/04/26 07:08:49;;;;;;;5.10;1.97;;;;;;;4.95;92.75;100579.19;5001185;28;20342;-83
2023/04/26 07:11:14;;;;;;;4.60;2.73;;;;;;;4.97;91.52;100583.25;5000560;28;20213;-84
2023/04/26 07:13:39;;;;;;;2.77;1.83;;;;;;;4.97;90.63;100574.31;5001762;28;20200;-85
2023/04/26 07:16:05;;;;;;;4.87;1.60;;;;;;;5.06;90.72;100576.22;4998055;28;20201;-83
2023/04/26 07:18:30;;;;;;;7.83;1.80;;;;;;;5.14;90.13;100577.56;4995986;28;20312;-84
2023/04/26 07:20:55;;;;;;;1.00;0.87;;;;;;;5.20;89.34;100581.88;4996112;28;20655;-83
2023/04/26 07:23:21;;;;;;;1.57;1.47;;;;;;;5.24;88.79;100590.28;4995517;28;20223;-83
2023/04/26 07:25:46;;;;;;;0.90;0.73;;;;;;;5.36;89.12;100582.69;4995867;28;20209;-83
2023/04/26 07:28:11;;;;;;;3.40;2.10;;;;;;;5.40;87.72;100578.34;4995783;28;20231;-83
2023/04/26 07:30:37;;;;;;;7.97;2.53;;;;;;;5.44;86.65;100567.75;4996489;28;20181;-83
2023/04/26 07:33:02;;;;;;;2.57;2.37;;;;;;;5.40;86.56;100574.81;4996673;28;20202;-83
2023/04/26 07:35:27;;;;;;;0.17;0.17;;;;;;;5.54;87.19;100581.28;4995315;28;20236;-82
2023/04/26 07:37:53;;;;;;;2.97;1.70;;;;;;;5.76;87.41;100583.66;4996560;28;20182;-83
2023/04/26 07:40:18;;;;;;;0.10;0.10;;;;;;;5.74;87.20;100580.41;4995300;28;20651;-83
2023/04/26 07:42:44;;;;;;;4.00;1.83;;;;;;;5.75;86.44;100582.84;4995987;28;20191;-83
2023/04/26 07:45:09;;;;;;;4.63;1.80;;;;;;;5.65;86.13;100578.28;4995553;28;20217;-83
2023/04/26 07:47:35;;;;;;;2.57;1.80;;;;;;;5.53;85.71;100571.53;4995915;28;20283;-83
2023/04/26 07:50:00;;;;;;;0.87;0.87;;;;;;;5.52;85.94;100576.16;4995951;28;20185;-82
2023/04/26 07:52:26;;;;;;;0.63;0.53;;;;;;;5.52;85.85;100575.34;4995223;28;20566;-83
2023/04/26 07:54:51;;;;;;;1.27;1.03;;;;;;;5.54;85.33;100570.44;5004627;28;20201;-84
2023/04/26 07:57:16;;;;;;;0.77;0.57;;;;;;;5.62;85.61;100575.28;4995986;28;20264;-84
2023/04/26 07:59:41;;;;;;;1.37;0.73;;;;;;;5.62;83.37;100575.28;4994550;28;20274;-83
2023/04/26 08:02:07;;;;;;;1.03;0.93;;;;;;;5.61;82.76;100573.69;4991543;28;20208;-83
2023/04/26 08:04:33;;;;;;;1.37;1.27;;;;;;;5.80;83.63;100577.44;4995254;28;20715;-83
2023/04/26 08:07:00;;;;;;;2.53;1.30;;;;;;;5.76;82.85;100570.91;4993857;28;20346;-83
2023/04/26 08:09:25;;;;;;;2.43;1.50;;;;;;;5.91;82.33;100576.31;4997656;28;20651;-84
2023/04/26 08:11:50;;;;;;;3.43;1.60;;;;;;;6.20;81.78;100572.94;5000577;28;20204;-85
2023/04/26 08:14:16;;;;;;;4.67;1.27;;;;;;;6.50;80.98;100571.94;4999919;28;20197;-85
2023/04/26 08:16:43;;;;;;;0.30;0.30;;;;;;;6.63;78.99;100565.09;5002045;28;20205;-85
2023/04/26 08:19:08;;;;;;;7.33;1.27;;;;;;;6.64;77.95;100564.00;4999774;28;20185;-83
2023/04/26 08:21:33;;;;;;;6.73;1.00;;;;;;;6.45;77.08;100561.13;4999305;28;20546;-84
2023/04/26 08:23:59;;;;;;;0.17;0.17;;;;;;;6.25;76.41;100564.78;4997472;28;20205;-84
2023/04/26 08:26:24;;;;;;;0.10;0.10;;;;;;;6.22;77.50;100565.31;4997349;28;20201;-85
2023/04/26 08:28:49;;;;;;;1.40;0.47;;;;;;;6.30;78.45;100574.78;4997341;28;20526;-85
2023/04/26 08:31:15;;;;;;;0.20;0.20;;;;;;;6.48;78.95;100574.94;4998276;28;20215;-84
2023/04/26 08:33:41;;;;;;;0.03;0.03;;;;;;;6.73;76.65;100557.69;4998712;28;20188;-84
2023/04/26 08:36:07;;;;;;;1.07;0.93;;;;;;;6.88;74.60;100554.03;4996681;28;20201;-85
2023/04/26 08:38:32;;;;;;;4.07;0.60;;;;;;;6.89;73.74;100552.94;4996195;28;20347;-84
2023/04/26 08:41:02;;;;;;;0.00;0.00;;;;;;;6.99;73.50;100550.16;4997313;28;20636;-84
2023/04/26 08:43:28;;;;;;;0.00;0.00;;;;;;;7.12;72.00;100552.22;4997688;28;20173;-84
2023/04/26 08:45:54;;;;;;;0.80;0.43;;;;;;;7.33;72.03;100560.16;4996109;28;20203;-84
2023/04/26 08:48:20;;;;;;;2.37;0.70;;;;;;;7.00;70.90;100538.19;4997280;28;20184;-87
2023/04/26 08:50:46;;;;;;;1.30;1.20;;;;;;;6.93;71.42;100554.00;5002077;28;20204;-86
2023/04/26 08:53:16;;;;;;;1.50;0.73;;;;;;;6.84;70.95;100547.56;5010170;28;20204;-84
2023/04/26 08:55:49;;;;;;;2.43;1.43;;;;;;;6.77;71.36;100545.16;5016446;28;20193;-86
2023/04/26 08:58:16;;;;;;;0.90;0.77;;;;;;;6.78;71.78;100551.41;5016443;28;20161;-85
2023/04/26 09:00:45;;;;;;;0.13;0.13;;;;;;;6.84;72.27;100555.72;5014913;28;20182;-84
2023/04/26 09:03:10;;;;;;;2.00;1.20;;;;;;;7.02;72.62;100563.16;4995767;28;20216;-84
2023/04/26 09:05:38;;;;;;;2.27;0.73;;;;;;;7.24;70.67;100543.69;4995340;28;20220;-85
2023/04/26 09:08:06;;;;;;;0.23;0.23;;;;;;;7.39;69.02;100546.25;4994927;28;20319;-84
2023/04/26 09:10:31;;;;;;;0.47;0.47;;;;;;;7.07;67.95;100537.84;4994621;28;20185;-84
2023/04/26 09:12:57;;;;;;;8.00;0.90;;;;;;;6.88;68.03;100535.03;4994193;28;20188;-83
2023/04/26 09:15:25;;;;;;;0.67;0.67;;;;;;;6.81;68.39;100540.00;4993829;28;20185;-83
2023/04/26 09:17:51;;;;;;;1.50;1.03;;;;;;;6.74;68.77;100536.78;4995834;28;20180;-83
2023/04/26 09:20:27;;;;;;;0.90;0.60;;;;;;;6.75;68.28;100541.13;4993877;28;20181;-84
2023/04/26 09:23:05;;;;;;;0.20;0.20;;;;;;;6.84;68.88;100553.00;4994694;28;20263;-86
2023/04/26 09:25:31;;;;;;;1.73;1.63;;;;;;;6.88;68.53;100542.38;4993215;28;20236;-84
2023/04/26 09:27:57;;;;;;;0.20;0.20;;;;;;;7.12;69.54;100551.41;4994199;28;20223;-84
2023/04/26 09:30:24;;;;;;;0.80;0.40;;;;;;;7.37;69.75;100558.50;4993666;28;20555;-86
2023/04/26 09:32:58;;;;;;;1.67;1.10;;;;;;;7.33;68.37;100547.38;4996297;28;20181;-85
2023/04/26 09:35:32;;;;;;;2.20;1.63;;;;;;;7.35;69.02;100549.81;4998382;28;20172;-84
2023/04/26 09:38:01;;;;;;;2.03;1.30;;;;;;;7.18;68.64;100546.72;4997634;28;20925;-85
2023/04/26 09:40:28;;;;;;;4.60;1.40;;;;;;;7.22;68.83;100553.19;4999639;28;20192;-84
2023/04/26 09:42:58;;;;;;;0.30;0.30;;;;;;;7.35;68.53;100547.91;4997469;28;20181;-83
2023/04/26 09:45:24;;;;;;;0.73;0.40;;;;;;;7.49;67.32;100537.16;4997414;28;20655;-85
2023/04/26 09:47:50;;;;;;;0.33;0.33;;;;;;;7.72;66.42;100533.66;5001052;28;20177;-87
2023/04/26 09:50:29;;;;;;;5.57;1.30;;;;;;;7.76;64.48;100518.38;5000938;28;20254;-84
2023/04/26 09:52:55;;;;;;;0.30;0.20;;;;;;;7.71;62.05;100509.47;5001896;28;20253;-84
2023/04/26 09:55:28;;;;;;;1.50;0.57;;;;;;;7.70;62.44;100521.44;5000374;28;20271;-85
2023/04/26 09:57:55;;;;;;;0.13;0.13;;;;;;;7.52;60.97;100509.41;5000754;28;20181;-84
2023/04/26 10:00:22;;;;;;;0.60;0.50;;;;;;;7.45;62.57;100520.63;5001491;28;20560;-85
2023/04/26 10:02:48;;;;;;;1.20;1.20;;;;;;;7.33;63.26;100533.00;5001590;28;20177;-84
2023/04/26 10:05:14;;;;;;;0.60;0.60;;;;;;;7.23;65.09;100544.75;5001913;28;20224;-86
2023/04/26 10:07:40;;;;;;;0.20;0.20;;;;;;;7.23;67.83;100568.41;4999734;28;20260;-84
2023/04/26 10:10:07;;;;;;;4.33;0.70;;;;;;;7.11;67.99;100556.03;5000337;28;20208;-85
2023/04/26 10:12:33;;;;;;;0.60;0.60;;;;;;;7.05;68.08;100559.06;4999878;28;20185;-84
2023/04/26 10:14:58;;;;;;;0.00;0.00;;;;;;;7.13;68.03;100569.34;5001121;28;20181;-85
2023/04/26 10:17:23;;;;;;;0.00;0.00;;;;;;;7.18;67.21;100555.69;5000568;28;20209;-84
2023/04/26 10:19:55;;;;;;;0.97;0.83;;;;;;;7.15;68.26;100562.50;5000196;28;20177;-84
2023/04/26 10:22:24;;;;;;;1.70;1.23;;;;;;;7.13;68.07;100561.19;5000927;28;20618;-84
2023/04/26 10:24:52;;;;;;;0.43;0.43;;;;;;;7.16;67.92;100558.69;5000402;28;20212;-85
2023/04/26 10:27:43;;;;;;;8.97;2.23;;;;;;;7.34;67.64;100564.50;5000211;28;20201;-85
2023/04/26 10:30:11;;;;;;;1.53;0.90;;;;;;;7.44;66.30;100546.19;4999646;28;20185;-85
2023/04/26 10:32:54;;;;;;;0.50;0.50;;;;;;;7.55;64.63;100536.03;4999756;28;20191;-84
2023/04/26 10:35:21;;;;;;;0.77;0.77;;;;;;;7.77;65.86;100530.06;5001014;28;20285;-84
2023/04/26 10:37:58;;;;;;;0.73;0.53;;;;;;;7.92;63.92;100529.06;5000295;28;20188;-84
2023/04/26 10:40:25;;;;;;;0.50;0.50;;;;;;;7.80;62.97;100518.59;5001145;28;20203;-84
2023/04/26 10:42:50;;;;;;;0.30;0.30;;;;;;;7.63;62.71;100516.34;5000771;28;20201;-86
2023/04/26 10:45:27;;;;;;;0.00;0.00;;;;;;;7.58;62.65;100521.03;4999804;28;20769;-84
2023/04/26 10:48:21;;;;;;;0.00;0.00;;;;;;;7.65;64.58;100533.19;4997986;28;20572;-84
2023/04/26 10:51:07;;;;;;;0.87;0.87;;;;;;;7.62;65.92;100543.81;4998381;28;20185;-84
2023/04/26 10:53:44;;;;;;;11.50;0.63;;;;;;;7.32;65.02;100531.38;4998463;28;20180;-83
2023/04/26 10:56:11;;;;;;;4.60;0.60;;;;;;;7.20;66.84;100550.78;4998519;28;20344;-84
2023/04/26 10:58:40;;;;;;;1.30;1.20;;;;;;;7.12;67.97;100556.84;4997949;28;20705;-83
2023/04/26 11:01:16;;;;;;;1.60;1.50;;;;;;;7.07;67.53;100548.72;4998658;28;20188;-84
2023/04/26 11:03:57;;;;;;;1.50;1.00;;;;;;;7.22;67.96;100555.91;4996785;28;20741;-84
2023/04/26 11:06:23;;;;;;;4.90;1.37;;;;;;;7.40;67.44;100557.94;4996565;28;20220;-84
2023/04/26 11:08:49;;;;;;;1.63;1.53;;;;;;;7.58;66.39;100542.78;4998577;28;20189;-84
2023/04/26 11:11:18;;;;;;;0.17;0.17;;;;;;;7.67;64.29;100528.28;4998275;28;20562;-84
2023/04/26 11:13:45;;;;;;;0.10;0.10;;;;;;;8.08;62.53;100519.59;4996084;28;20572;-85
2023/04/26 11:16:15;;;;;;;0.63;0.60;;;;;;;8.00;58.71;100496.56;4998399;28;20209;-85
2023/04/26 11:18:43;;;;;;;0.50;0.50;;;;;;;8.32;59.29;100498.56;4997049;28;20189;-84
2023/04/26 11:21:09;;;;;;;0.40;0.40;;;;;;;8.80;60.09;100503.81;4998067;28;20271;-84
2023/04/26 11:23:35;;;;;;;1.40;0.50;;;;;;;8.90;58.08;100478.34;4999384;28;20668;-84